Ferreira, South Africa
Current Conditions -  °F | °C
As of 9:00 PM on Friday 21 Nov 2014 (Local Time) from FAOR Reporting Station
Clear Clear  
Wind Chill: 64°   Ceiling: Unl
Heat Index: 64°   Visibility: 6mi
Dew Point: 48°   Wind: 6mph
Humidity: 56%   Direction: 40°NE
Pressure: 30.24"   Gusts: NA
Location:  29.2°S, 26.18°E
Report Text: FAOR 211900Z 04005KT 310V080 CAVOK 18/09 Q1024 NOSIG
Loading
Personal Weather Stations






























Interactive Weather Map New forecast layout! Learn more

10-Day Weather Forecast

Advertisements
Track Severe Weather on mobile